createdAt,value
2019-06-07T00:01:29.605Z,87396.86
2019-06-07T00:03:56.419Z,87395.53
2019-06-07T00:06:25.635Z,87396.61
2019-06-07T00:08:51.647Z,87398.34
2019-06-07T00:11:20.511Z,87395.13
2019-06-07T00:13:46.994Z,87399.34
2019-06-07T00:16:14.959Z,87394.45
2019-06-07T00:18:42.318Z,87396.14
2019-06-07T00:21:10.023Z,87402.03
2019-06-07T00:23:36.889Z,87394.49
2019-06-07T00:26:04.126Z,87399.63
2019-06-07T00:28:30.845Z,87400.02
2019-06-07T00:30:57.596Z,87400.19
2019-06-07T00:33:25.230Z,87397.37
2019-06-07T00:35:52.137Z,87399.82
2019-06-07T00:38:20.446Z,87406.08
2019-06-07T00:40:47.509Z,87402.11
2019-06-07T00:43:17.581Z,87406.24
2019-06-07T00:45:42.793Z,87406.97
2019-06-07T00:48:16.189Z,87406.38
2019-06-07T00:50:38.268Z,87406.93
2019-06-07T00:53:17.271Z,87404.84
2019-06-07T00:55:33.598Z,87408.62
2019-06-07T00:58:00.311Z,87404.08
2019-06-07T01:00:27.055Z,87402.95
2019-06-07T01:02:53.822Z,87408.25
2019-06-07T01:05:28.555Z,87406.56
2019-06-07T01:07:49.105Z,87411.14
2019-06-07T01:10:22.883Z,87415.67
2019-06-07T01:12:45.744Z,87421.77
2019-06-07T01:15:15.789Z,87422.53
2019-06-07T01:18:25.950Z,87419.52
2019-06-07T01:20:12.867Z,87418.22
2019-06-07T01:22:40.857Z,87416.73
2019-06-07T01:25:08.424Z,87422.59
2019-06-07T01:27:35.208Z,87420.11
2019-06-07T01:30:08.107Z,87418.98
2019-06-07T01:32:34.881Z,87412.36
2019-06-07T01:35:01.908Z,87423.21
2019-06-07T01:37:30.297Z,87419.63
2019-06-07T01:39:57.235Z,87419.83
2019-06-07T01:42:25.314Z,87425.52
2019-06-07T01:44:52.512Z,87432.11
2019-06-07T01:47:21.270Z,87424.75
2019-06-07T01:49:47.882Z,87429.12
2019-06-07T01:52:14.622Z,87430.64
2019-06-07T01:54:56.762Z,87435.36
2019-06-07T01:57:30.538Z,87437.27
2019-06-07T01:59:38.555Z,87441.83
2019-06-07T02:02:05.358Z,87443.91
2019-06-07T02:04:33.468Z,87443.14
2019-06-07T02:07:00.409Z,87442.56
2019-06-07T02:09:29.845Z,87449.77
2019-06-07T02:11:55.843Z,87454.34
2019-06-07T02:14:25.743Z,87453.56
2019-06-07T02:16:51.269Z,87445.46
2019-06-07T02:19:17.998Z,87451.31
2019-06-07T02:21:44.743Z,87453.59
2019-06-07T02:24:11.624Z,87451.13
2019-06-07T02:26:38.402Z,87452.47
2019-06-07T02:29:05.143Z,87450.19
2019-06-07T02:31:38.571Z,87446.61
2019-06-07T02:34:00.526Z,87441.72
2019-06-07T02:36:30.490Z,87440.39
2019-06-07T02:38:55.846Z,87449.25
2019-06-07T02:41:25.832Z,87448.69
2019-06-07T02:43:51.120Z,87446.04
2019-06-07T02:46:26.395Z,87447.92
2019-06-07T02:48:46.556Z,87450.97
2019-06-07T02:51:13.415Z,87445.29
2019-06-07T02:53:40.517Z,87445.88
2019-06-07T02:58:41.537Z,87446.06
2019-06-07T03:01:09.075Z,87455.69
2019-06-07T03:03:39.599Z,87455.69
2019-06-07T03:06:02.578Z,87456.04
2019-06-07T03:08:35.423Z,87444.92
2019-06-07T03:11:01.878Z,87448.69
2019-06-07T03:13:34.976Z,87453.99
2019-06-07T03:16:04.523Z,87450.98
2019-06-07T03:18:32.179Z,87447.37
2019-06-07T03:21:05.329Z,87447.74
2019-06-07T03:23:30.682Z,87442.09
2019-06-07T03:25:58.122Z,87442.84
2019-06-07T03:28:25.030Z,87436.23
2019-06-07T03:31:01.632Z,87442.45
2019-06-07T03:33:20.422Z,87444.16
2019-06-07T03:35:47.309Z,87443.78
2019-06-07T03:38:14.023Z,87449.84
2019-06-07T03:40:40.752Z,87451.70
2019-06-07T03:43:07.643Z,87449.45
2019-06-07T03:45:37.857Z,87451.16
2019-06-07T03:48:02.921Z,87450.40
2019-06-07T03:50:33.410Z,87453.43
2019-06-07T03:52:58.250Z,87455.48
2019-06-07T03:55:24.964Z,87453.60
2019-06-07T04:00:20.657Z,87457.36
2019-06-07T04:02:47.378Z,87458.50
2019-06-07T04:05:14.185Z,87465.66
2019-06-07T04:07:44.430Z,87459.05
2019-06-07T04:10:09.636Z,87458.10
2019-06-07T04:12:41.352Z,87467.73
2019-06-07T04:15:05.374Z,87471.70
2019-06-07T04:17:33.786Z,87468.84
2019-06-07T04:20:00.712Z,87472.63
2019-06-07T04:22:28.840Z,87480.20
2019-06-07T04:24:56.796Z,87478.11
2019-06-07T04:27:23.632Z,87481.52
2019-06-07T04:30:06.366Z,87479.61
2019-06-07T04:32:18.982Z,87484.70
2019-06-07T04:34:45.854Z,87482.28
2019-06-07T04:37:12.974Z,87480.38
2019-06-07T04:39:44.558Z,87486.05
2019-06-07T04:42:11.677Z,87488.11
2019-06-07T04:44:42.556Z,87491.70
2019-06-07T04:47:10.781Z,87494.88
2019-06-07T04:49:43.426Z,87496.41
2019-06-07T04:52:10.528Z,87505.84
2019-06-07T04:54:38.569Z,87503.96
2019-06-07T04:57:05.824Z,87509.99
2019-06-07T05:00:05.532Z,87513.58
2019-06-07T05:02:01.080Z,87510.71
2019-06-07T05:04:28.984Z,87511.45
2019-06-07T05:06:56.457Z,87505.59
2019-06-07T05:09:23.144Z,87500.50
2019-06-07T05:11:50.016Z,87498.75
2019-06-07T05:14:16.757Z,87501.59
2019-06-07T05:16:44.540Z,87500.64
2019-06-07T05:19:11.722Z,87502.16
2019-06-07T05:21:54.197Z,87497.60
2019-06-07T05:24:10.374Z,87497.23
2019-06-07T05:26:40.520Z,87506.31
2019-06-07T05:29:07.217Z,87507.41
2019-06-07T05:31:36.828Z,87509.83
2019-06-07T05:34:03.227Z,87517.95
2019-06-07T05:36:36.691Z,87514.70
2019-06-07T05:39:02.119Z,87514.84
2019-06-07T05:41:29.009Z,87509.91
2019-06-07T05:44:12.285Z,87516.89
2019-06-07T05:46:24.313Z,87514.02
2019-06-07T05:48:51.041Z,87515.86
2019-06-07T05:51:18.581Z,87522.26
2019-06-07T05:53:46.211Z,87521.08
2019-06-07T05:56:13.640Z,87521.03
2019-06-07T05:58:42.762Z,87522.88
2019-06-07T06:03:38.149Z,87513.66
2019-06-07T06:06:04.880Z,87508.05
2019-06-07T06:08:31.618Z,87507.75
2019-06-07T06:10:58.496Z,87505.53
2019-06-07T06:13:25.264Z,87508.27
2019-06-07T06:16:01.388Z,87508.35
2019-06-07T06:18:20.583Z,87507.34
2019-06-07T06:21:12.755Z,87503.42
2019-06-07T06:23:15.873Z,87507.91
2019-06-07T06:25:50.935Z,87500.63
2019-06-07T06:28:12.928Z,87501.68
2019-06-07T06:30:41.199Z,87503.31
2019-06-07T06:33:27.178Z,87501.17
2019-06-07T06:35:37.559Z,87501.11
2019-06-07T06:38:04.501Z,87498.53
2019-06-07T06:40:31.312Z,87495.79
2019-06-07T06:42:58.035Z,87499.06
2019-06-07T06:45:24.949Z,87494.63
2019-06-07T06:47:51.767Z,87497.70
2019-06-07T06:50:19.017Z,87497.42
2019-06-07T06:52:48.516Z,87504.06
2019-06-07T06:55:14.811Z,87501.82
2019-06-07T06:57:41.863Z,87499.64
2019-06-07T07:00:13.180Z,87502.37
2019-06-07T07:03:26.777Z,87500.43
2019-06-07T07:05:10.737Z,87498.50
2019-06-07T07:07:37.975Z,87495.77
2019-06-07T07:10:08.172Z,87500.65
2019-06-07T07:12:34.915Z,87495.23
2019-06-07T07:15:06.374Z,87492.41
2019-06-07T07:17:50.850Z,87487.08
2019-06-07T07:20:05.671Z,87494.80
2019-06-07T07:22:32.387Z,87487.43
2019-06-07T07:24:59.273Z,87482.60
2019-06-07T07:27:25.985Z,87495.31
2019-06-07T07:30:29.544Z,87489.95
2019-06-07T07:32:21.362Z,87492.24
2019-06-07T07:34:51.892Z,87485.08
2019-06-07T07:37:16.617Z,87483.78
2019-06-07T07:39:46.356Z,87483.13
2019-06-07T07:42:20.660Z,87474.11
2019-06-07T07:44:40.560Z,87476.25
2019-06-07T07:47:07.549Z,87469.20
2019-06-07T07:49:34.270Z,87475.22
2019-06-07T07:52:01.006Z,87476.25
2019-06-07T07:54:27.891Z,87470.64
2019-06-07T07:56:56.044Z,87463.48
2019-06-07T07:59:41.090Z,87464.63
2019-06-07T08:01:55.560Z,87469.07
2019-06-07T08:04:39.744Z,87467.08
2019-06-07T08:06:51.167Z,87468.09
2019-06-07T08:09:17.726Z,87465.84
2019-06-07T08:11:47.226Z,87465.63
2019-06-07T08:14:12.969Z,87457.61
2019-06-07T08:16:39.894Z,87467.91
2019-06-07T08:19:06.605Z,87465.00
2019-06-07T08:21:33.333Z,87464.92
2019-06-07T08:24:04.235Z,87459.53
2019-06-07T08:26:28.776Z,87458.68
2019-06-07T08:28:58.906Z,87454.02
2019-06-07T08:31:24.107Z,87462.73
2019-06-07T08:33:52.618Z,87452.84
2019-06-07T08:36:30.147Z,87463.88
2019-06-07T08:38:52.382Z,87457.91
2019-06-07T08:41:16.634Z,87458.81
2019-06-07T08:43:43.315Z,87459.08
2019-06-07T08:46:10.355Z,87463.17
2019-06-07T08:48:37.120Z,87465.17
2019-06-07T08:51:08.300Z,87464.09
2019-06-07T08:53:32.622Z,87464.33
2019-06-07T08:56:08.825Z,87453.73
2019-06-07T08:58:27.877Z,87463.16
2019-06-07T09:00:56.318Z,87459.23
2019-06-07T09:03:23.318Z,87456.99
2019-06-07T09:05:50.006Z,87454.67
2019-06-07T09:08:29.795Z,87453.14
2019-06-07T09:10:46.561Z,87453.56
2019-06-07T09:13:13.390Z,87459.09
2019-06-07T09:15:40.231Z,87461.49
2019-06-07T09:18:37.951Z,87452.97
2019-06-07T09:20:48.595Z,87458.58
2019-06-07T09:23:17.150Z,87468.84
2019-06-07T09:25:56.538Z,87474.62
2019-06-07T09:28:19.484Z,87473.78
2019-06-07T09:30:43.914Z,87470.52
2019-06-07T09:33:11.404Z,87472.52
2019-06-07T09:35:39.083Z,87471.19
2019-06-07T09:38:17.642Z,87477.18
2019-06-07T09:40:34.351Z,87477.69
2019-06-07T09:43:47.288Z,87472.03
2019-06-07T09:45:29.695Z,87472.36
2019-06-07T09:47:57.060Z,87471.43
2019-06-07T09:50:25.008Z,87467.86
2019-06-07T09:52:58.451Z,87464.26
2019-06-07T09:55:24.695Z,87461.98
2019-06-07T09:57:48.998Z,87457.72
2019-06-07T10:00:40.158Z,87455.30
2019-06-07T10:02:44.977Z,87456.14
2019-06-07T10:05:14.295Z,87453.20
2019-06-07T10:07:59.318Z,87455.52
2019-06-07T10:12:38.630Z,87445.98
2019-06-07T10:15:07.041Z,87445.23
2019-06-07T10:17:33.871Z,87446.30
2019-06-07T10:20:02.549Z,87444.28
2019-06-07T10:22:29.177Z,87441.09
2019-06-07T10:24:55.898Z,87440.80
2019-06-07T10:27:22.741Z,87440.42
2019-06-07T10:29:49.446Z,87436.62
2019-06-07T10:32:16.178Z,87435.47
2019-06-07T10:34:43.443Z,87437.63
2019-06-07T10:37:14.836Z,87437.19
2019-06-07T10:39:48.776Z,87431.38
2019-06-07T10:42:09.676Z,87432.33
2019-06-07T10:44:36.547Z,87427.94
2019-06-07T10:47:03.973Z,87424.09
2019-06-07T10:49:30.895Z,87428.60
2019-06-07T10:51:57.631Z,87423.79
2019-06-07T10:54:30.298Z,87423.73
2019-06-07T10:56:53.098Z,87419.66
2019-06-07T10:59:19.831Z,87420.69
2019-06-07T11:01:47.002Z,87422.34
2019-06-07T11:04:13.959Z,87420.03
2019-06-07T11:06:40.767Z,87423.15
2019-06-07T11:09:07.914Z,87425.70
2019-06-07T11:11:34.697Z,87417.74
2019-06-07T11:14:02.114Z,87419.25
2019-06-07T11:16:28.861Z,87417.11
2019-06-07T11:18:55.636Z,87422.08
2019-06-07T11:21:22.385Z,87414.92
2019-06-07T11:23:49.102Z,87422.16
2019-06-07T11:26:16.009Z,87413.84
2019-06-07T11:28:42.736Z,87417.59
2019-06-07T11:31:10.755Z,87418.28
2019-06-07T11:33:37.991Z,87414.59
2019-06-07T11:36:04.893Z,87412.00
2019-06-07T11:38:31.925Z,87416.76
2019-06-07T11:40:58.670Z,87422.09
2019-06-07T11:43:25.930Z,87413.38
2019-06-07T11:45:52.673Z,87417.23
2019-06-07T11:48:19.563Z,87418.67
2019-06-07T11:50:46.299Z,87420.69
2019-06-07T11:53:13.042Z,87405.95
2019-06-07T11:55:39.831Z,87401.80
2019-06-07T11:58:12.702Z,87402.10
2019-06-07T12:00:36.551Z,87408.48
2019-06-07T12:03:03.410Z,87410.40
2019-06-07T12:05:30.180Z,87410.44
2019-06-07T12:07:57.242Z,87406.86
2019-06-07T12:10:24.202Z,87403.85
2019-06-07T12:12:50.943Z,87402.50
2019-06-07T12:15:19.174Z,87408.66
2019-06-07T12:17:46.171Z,87395.80
2019-06-07T12:20:16.742Z,87396.55
2019-06-07T12:22:43.852Z,87398.60
2019-06-07T12:25:12.474Z,87392.30
2019-06-07T12:27:40.393Z,87400.20
2019-06-07T12:30:11.322Z,87388.88
2019-06-07T12:32:36.555Z,87397.06
2019-06-07T12:35:08.674Z,87398.35
2019-06-07T12:37:43.975Z,87398.18
2019-06-07T12:40:06.307Z,87403.19
2019-06-07T12:42:33.073Z,87394.97
2019-06-07T12:44:59.811Z,87403.58
2019-06-07T12:47:26.622Z,87398.15
2019-06-07T12:49:53.363Z,87396.44
2019-06-07T12:52:22.735Z,87393.45
2019-06-07T12:54:48.670Z,87409.23
2019-06-07T12:57:16.216Z,87395.42
2019-06-07T12:59:43.011Z,87394.06
2019-06-07T13:02:10.206Z,87396.86
2019-06-07T13:04:36.939Z,87392.20
2019-06-07T13:07:03.779Z,87391.02
2019-06-07T13:09:30.675Z,87386.41
2019-06-07T13:11:57.391Z,87394.80
2019-06-07T13:14:24.137Z,87391.81
2019-06-07T13:16:50.987Z,87389.22
2019-06-07T13:19:18.069Z,87384.59
2019-06-07T13:21:44.908Z,87395.73
2019-06-07T13:24:11.778Z,87395.25
2019-06-07T13:26:38.512Z,87401.54
2019-06-07T13:29:05.431Z,87396.00
2019-06-07T13:31:32.246Z,87404.97
2019-06-07T13:33:58.990Z,87396.61
2019-06-07T13:36:25.762Z,87396.05
2019-06-07T13:38:52.566Z,87397.06
2019-06-07T13:41:35.299Z,87394.19
2019-06-07T13:43:51.360Z,87396.25
2019-06-07T13:46:16.908Z,87409.02
2019-06-07T13:48:43.785Z,87402.34
2019-06-07T13:51:10.538Z,87400.23
2019-06-07T13:53:37.436Z,87399.77
2019-06-07T13:56:04.169Z,87407.40
2019-06-07T13:58:30.911Z,87406.75
2019-06-07T14:00:58.649Z,87404.80
2019-06-07T14:03:30.470Z,87398.25
2019-06-07T14:05:53.984Z,87393.81
2019-06-07T14:08:21.081Z,87391.86
2019-06-07T14:10:47.931Z,87393.48
2019-06-07T14:13:14.674Z,87397.89
2019-06-07T14:15:41.555Z,87385.11
2019-06-07T14:18:08.295Z,87379.61
2019-06-07T14:20:35.044Z,87395.34
2019-06-07T14:23:01.841Z,87397.29
2019-06-07T14:25:29.376Z,87385.64
2019-06-07T14:27:56.216Z,87390.84
2019-06-07T14:30:23.976Z,87394.70
2019-06-07T14:32:50.899Z,87395.02
2019-06-07T14:35:17.661Z,87385.59
2019-06-07T14:37:44.519Z,87395.40
2019-06-07T14:40:14.520Z,87407.29
2019-06-07T14:42:41.258Z,87407.65
2019-06-07T14:45:10.670Z,87411.13
2019-06-07T14:47:37.385Z,87413.30
2019-06-07T14:50:08.273Z,87418.66
2019-06-07T14:52:35.330Z,87411.21
2019-06-07T14:55:04.577Z,87412.52
2019-06-07T14:57:31.313Z,87409.63
2019-06-07T14:59:58.129Z,87417.98
2019-06-07T15:02:26.266Z,87412.05
2019-06-07T15:04:53.522Z,87407.20
2019-06-07T15:07:20.430Z,87411.00
2019-06-07T15:09:47.181Z,87411.48
2019-06-07T15:12:24.500Z,87414.45
2019-06-07T15:14:42.590Z,87418.81
2019-06-07T15:17:09.488Z,87415.59
2019-06-07T15:19:36.516Z,87420.92
2019-06-07T15:22:03.598Z,87421.48
2019-06-07T15:24:33.965Z,87413.13
2019-06-07T15:26:58.841Z,87422.50
2019-06-07T15:29:25.724Z,87428.81
2019-06-07T15:31:52.469Z,87418.41
2019-06-07T15:34:19.762Z,87421.62
2019-06-07T15:36:51.849Z,87432.46
2019-06-07T15:39:18.621Z,87422.62
2019-06-07T15:41:45.347Z,87433.61
2019-06-07T15:44:12.354Z,87433.83
2019-06-07T15:46:40.175Z,87435.23
2019-06-07T15:49:07.277Z,87433.09
2019-06-07T15:51:34.501Z,87432.72
2019-06-07T15:54:01.265Z,87438.98
2019-06-07T15:56:27.979Z,87438.95
2019-06-07T15:58:54.892Z,87443.66
2019-06-07T16:01:21.841Z,87454.84
2019-06-07T16:03:51.364Z,87449.76
2019-06-07T16:06:19.650Z,87454.28
2019-06-07T16:08:46.488Z,87452.75
2019-06-07T16:11:13.214Z,87451.66
2019-06-07T16:13:40.806Z,87441.02
2019-06-07T16:16:07.641Z,87444.09
2019-06-07T16:18:35.218Z,87435.58
2019-06-07T16:21:02.386Z,87432.91
2019-06-07T16:23:29.137Z,87435.97
2019-06-07T16:25:55.885Z,87440.64
2019-06-07T16:28:24.484Z,87450.38
2019-06-07T16:30:51.158Z,87441.07
2019-06-07T16:33:18.724Z,87434.13
2019-06-07T16:35:47.253Z,87431.52
2019-06-07T16:38:13.960Z,87437.20
2019-06-07T16:40:42.393Z,87446.52
2019-06-07T16:43:17.906Z,87457.00
2019-06-07T16:45:44.992Z,87464.63
2019-06-07T16:48:11.790Z,87468.33
2019-06-07T16:50:38.807Z,87471.47
2019-06-07T16:53:05.517Z,87482.82
2019-06-07T16:55:32.231Z,87477.69
2019-06-07T16:57:59.238Z,87476.70
2019-06-07T17:00:28.154Z,87488.33
2019-06-07T17:02:54.855Z,87490.69
2019-06-07T17:05:28.461Z,87486.91
2019-06-07T17:07:55.073Z,87478.89
2019-06-07T17:10:21.906Z,87489.38
2019-06-07T17:12:49.101Z,87484.04
2019-06-07T17:15:17.080Z,87503.81
2019-06-07T17:17:45.127Z,87501.83
2019-06-07T17:20:13.024Z,87499.72
2019-06-07T17:22:41.560Z,87502.61
2019-06-07T17:25:09.587Z,87502.92
2019-06-07T17:27:36.479Z,87503.23
2019-06-07T17:30:09.923Z,87514.34
2019-06-07T17:32:48.634Z,87509.27
2019-06-07T17:35:06.746Z,87506.95
2019-06-07T17:37:33.521Z,87506.23
2019-06-07T17:40:00.219Z,87508.51
2019-06-07T17:42:27.019Z,87514.19
2019-06-07T17:44:53.742Z,87511.67
2019-06-07T17:47:20.493Z,87523.64
2019-06-07T17:49:47.824Z,87514.58
2019-06-07T17:52:14.600Z,87516.52
2019-06-07T17:54:41.782Z,87517.65
2019-06-07T17:57:08.647Z,87523.00
2019-06-07T17:59:35.390Z,87521.58
2019-06-07T18:02:14.036Z,87534.80
2019-06-07T18:04:30.795Z,87528.48
2019-06-07T18:06:58.146Z,87530.03
2019-06-07T18:09:25.342Z,87540.39
2019-06-07T18:11:52.355Z,87531.76
2019-06-07T18:14:19.261Z,87534.00
2019-06-07T18:16:46.424Z,87531.50
2019-06-07T18:19:13.309Z,87546.81
2019-06-07T18:21:40.048Z,87537.91
2019-06-07T18:24:06.777Z,87543.05
2019-06-07T18:26:33.651Z,87551.58
2019-06-07T18:29:00.370Z,87556.86
2019-06-07T18:31:27.111Z,87557.45
2019-06-07T18:33:55.048Z,87561.47
2019-06-07T18:36:21.848Z,87558.31
2019-06-07T18:38:48.979Z,87560.06
2019-06-07T18:41:15.975Z,87568.17
2019-06-07T18:43:42.748Z,87567.84
2019-06-07T18:46:09.466Z,87573.05
2019-06-07T18:48:36.353Z,87570.70
2019-06-07T18:51:03.234Z,87567.89
2019-06-07T18:53:29.901Z,87575.51
2019-06-07T18:55:58.061Z,87572.98
2019-06-07T18:58:24.890Z,87587.05
2019-06-07T19:00:51.635Z,87583.52
2019-06-07T19:03:18.671Z,87583.52
2019-06-07T19:05:51.972Z,87581.38
2019-06-07T19:08:19.339Z,87592.37
2019-06-07T19:10:48.674Z,87595.14
2019-06-07T19:13:15.519Z,87592.75
2019-06-07T19:15:43.458Z,87602.75
2019-06-07T19:18:10.451Z,87598.16
2019-06-07T19:20:37.206Z,87596.83
2019-06-07T19:23:04.115Z,87596.83
2019-06-07T19:25:30.933Z,87605.69
2019-06-07T19:27:58.973Z,87616.20
2019-06-07T19:30:26.021Z,87630.64
2019-06-07T19:32:53.163Z,87633.50
2019-06-07T19:35:20.254Z,87635.52
2019-06-07T19:37:47.204Z,87644.70
2019-06-07T19:40:17.395Z,87642.77
2019-06-07T19:42:44.152Z,87648.96
2019-06-07T19:47:40.374Z,87647.39
2019-06-07T19:50:07.963Z,87645.37
2019-06-07T19:52:34.781Z,87645.77
2019-06-07T19:55:06.714Z,87656.36
2019-06-07T19:57:30.540Z,87669.20
2019-06-07T19:59:59.596Z,87671.86
2019-06-07T20:02:26.575Z,87676.87
2019-06-07T20:04:54.873Z,87664.23
2019-06-07T20:07:21.925Z,87668.99
2019-06-07T20:09:48.664Z,87668.47
2019-06-07T20:12:35.122Z,87675.05
2019-06-07T20:15:25.162Z,87676.96
2019-06-07T20:17:33.715Z,87684.24
2019-06-07T20:20:00.499Z,87684.61
2019-06-07T20:22:27.405Z,87687.52
2019-06-07T20:24:54.163Z,87699.77
2019-06-07T20:27:20.912Z,87696.28
2019-06-07T20:29:47.825Z,87691.08
2019-06-07T20:32:14.547Z,87701.23
2019-06-07T20:34:44.357Z,87702.52
2019-06-07T20:37:09.976Z,87700.08
2019-06-07T20:39:36.724Z,87702.30
2019-06-07T20:42:03.609Z,87700.31
2019-06-07T20:44:30.437Z,87700.84
2019-06-07T20:46:57.878Z,87701.46
2019-06-07T20:49:24.618Z,87699.91
2019-06-07T20:51:51.416Z,87698.75
2019-06-07T20:54:18.138Z,87710.80
2019-06-07T20:56:44.865Z,87703.41
2019-06-07T20:59:11.770Z,87714.08
2019-06-07T21:01:38.517Z,87719.41
2019-06-07T21:04:05.277Z,87717.48
2019-06-07T21:06:32.473Z,87727.19
2019-06-07T21:08:59.369Z,87730.39
2019-06-07T21:11:26.149Z,87733.26
2019-06-07T21:13:52.982Z,87734.44
2019-06-07T21:16:19.733Z,87726.89
2019-06-07T21:18:46.467Z,87743.59
2019-06-07T21:21:13.362Z,87738.78
2019-06-07T21:23:40.087Z,87727.19
2019-06-07T21:26:06.929Z,87723.90
2019-06-07T21:28:33.795Z,87723.90
2019-06-07T21:31:00.538Z,87726.56
2019-06-07T21:33:27.374Z,87722.91
2019-06-07T21:35:54.141Z,87732.06
2019-06-07T21:38:20.882Z,87731.14
2019-06-07T21:40:47.641Z,87730.20
2019-06-07T21:43:14.511Z,87733.44
2019-06-07T21:45:41.594Z,87727.19
2019-06-07T21:48:08.882Z,87726.59
2019-06-07T21:50:35.724Z,87724.52
2019-06-07T21:53:02.510Z,87731.58
2019-06-07T21:55:29.196Z,87741.91
2019-06-07T21:57:56.086Z,87735.36
2019-06-07T22:00:48.744Z,87743.20
2019-06-07T22:03:15.498Z,87744.87
2019-06-07T22:05:42.216Z,87751.44
2019-06-07T22:08:10.175Z,87743.59
2019-06-07T22:10:37.358Z,87739.77
2019-06-07T22:13:04.096Z,87739.66
2019-06-07T22:15:35.368Z,87735.88
2019-06-07T22:17:59.415Z,87739.47
2019-06-07T22:20:26.131Z,87734.73
2019-06-07T22:22:52.890Z,87743.35
2019-06-07T22:25:19.797Z,87746.63
2019-06-07T22:27:46.534Z,87743.77
2019-06-07T22:30:14.559Z,87740.19
2019-06-07T22:32:41.494Z,87747.84
2019-06-07T22:35:09.152Z,87742.31
2019-06-07T22:37:35.856Z,87742.73
2019-06-07T22:40:08.593Z,87741.78
2019-06-07T22:42:35.693Z,87746.55
2019-06-07T22:45:04.647Z,87750.55
2019-06-07T22:47:31.634Z,87740.45
2019-06-07T22:49:58.375Z,87733.86
2019-06-07T22:52:25.108Z,87739.23
2019-06-07T22:54:51.953Z,87747.87
2019-06-07T22:57:18.695Z,87751.48
2019-06-07T22:59:45.428Z,87751.48
2019-06-07T23:02:12.654Z,87742.03
2019-06-07T23:04:39.537Z,87741.91
2019-06-07T23:07:06.289Z,87742.30
2019-06-07T23:09:33.105Z,87739.69
2019-06-07T23:11:59.838Z,87738.81
2019-06-07T23:14:26.863Z,87737.89
2019-06-07T23:16:55.884Z,87739.48
2019-06-07T23:19:22.317Z,87728.13
2019-06-07T23:21:49.055Z,87727.20
2019-06-07T23:24:16.512Z,87743.42
2019-06-07T23:26:43.286Z,87737.74
2019-06-07T23:29:10.295Z,87735.52
2019-06-07T23:31:37.194Z,87727.75
2019-06-07T23:34:03.932Z,87726.64
2019-06-07T23:36:30.683Z,87731.05
2019-06-07T23:38:57.466Z,87721.91
2019-06-07T23:41:24.205Z,87727.81
2019-06-07T23:43:50.936Z,87722.70
2019-06-07T23:46:17.826Z,87718.14
2019-06-07T23:48:44.610Z,87715.48
2019-06-07T23:51:11.535Z,87711.70
2019-06-07T23:53:38.481Z,87707.77
2019-06-07T23:56:05.177Z,87702.34
2019-06-07T23:58:31.890Z,87708.36
